Time;durP1;ratioP1;P1;durP2;ratioP2;P2;SDS_P1;SDS_P2;PMS_P1;PMS_P2;Temp;Humidity;BMP_temperature;BMP_pressure;BME280_temperature;BME280_humidity;BME280_pressure;Samples;Min_cycle;Max_cycle;Signal;HPM_P1;HPM_P2
2022/03/09 00:02:14;;;;;;;13.15;7.75;;;-0.60;99.90;;;;;;1803486;78;21075;-72
2022/03/09 00:04:42;;;;;;;11.35;7.25;;;-0.60;99.90;;;;;;1825009;78;21082;-72
2022/03/09 00:07:11;;;;;;;11.57;7.37;;;-0.60;99.90;;;;;;1811325;77;21493;-74
2022/03/09 00:09:38;;;;;;;16.17;7.92;;;-0.60;99.90;;;;;;1813126;78;21089;-72
2022/03/09 00:12:06;;;;;;;14.70;7.40;;;-0.60;99.90;;;;;;1816411;78;21154;-74
2022/03/09 00:14:33;;;;;;;15.20;8.15;;;-0.70;99.90;;;;;;1817646;78;21211;-75
2022/03/09 00:17:01;;;;;;;14.83;8.00;;;-0.80;99.90;;;;;;1813376;78;21469;-74
2022/03/09 00:19:28;;;;;;;16.15;7.60;;;-0.80;99.90;;;;;;1800985;78;21089;-75
2022/03/09 00:21:57;;;;;;;11.45;7.25;;;-0.80;99.90;;;;;;1801517;78;21184;-75
2022/03/09 00:24:25;;;;;;;11.80;7.33;;;-0.80;99.90;;;;;;1811628;78;21139;-75
2022/03/09 00:26:52;;;;;;;10.43;6.22;;;-0.80;99.90;;;;;;1810122;78;21082;-75
2022/03/09 00:29:19;;;;;;;14.15;7.25;;;-0.80;99.90;;;;;;1803343;78;21159;-74
2022/03/09 00:31:47;;;;;;;10.53;6.58;;;-0.80;99.90;;;;;;1812525;78;21090;-75
2022/03/09 00:34:14;;;;;;;12.05;6.65;;;-0.90;99.90;;;;;;1802649;78;21174;-75
2022/03/09 00:36:41;;;;;;;11.57;7.05;;;-0.90;99.90;;;;;;1813864;78;21168;-75
2022/03/09 00:39:09;;;;;;;11.22;7.05;;;-1.10;99.90;;;;;;1811847;77;21141;-75
2022/03/09 00:41:36;;;;;;;13.93;6.92;;;-1.10;99.90;;;;;;1816519;78;21092;-76
2022/03/09 00:44:04;;;;;;;21.45;6.90;;;-1.00;99.90;;;;;;1827140;78;21494;-76
2022/03/09 00:46:32;;;;;;;11.40;7.40;;;-1.00;99.90;;;;;;1823429;78;21098;-75
2022/03/09 00:48:59;;;;;;;11.75;7.55;;;-1.00;99.90;;;;;;1812338;78;21077;-75
2022/03/09 00:51:27;;;;;;;11.97;6.72;;;-1.00;99.90;;;;;;1806088;78;21210;-75
2022/03/09 00:53:54;;;;;;;9.45;6.53;;;-1.10;99.90;;;;;;1813015;77;21093;-75
2022/03/09 00:56:21;;;;;;;8.18;5.70;;;-1.10;99.90;;;;;;1808763;78;21066;-73
2022/03/09 00:58:48;;;;;;;9.90;6.42;;;-1.10;99.90;;;;;;1812881;78;21088;-74
2022/03/09 01:01:16;;;;;;;14.85;6.92;;;-1.20;99.90;;;;;;1825275;78;21097;-75
2022/03/09 01:03:43;;;;;;;9.95;6.15;;;-1.30;99.90;;;;;;1807709;78;21462;-74
2022/03/09 01:06:10;;;;;;;10.58;6.53;;;-1.20;99.90;;;;;;1809982;78;21090;-75
2022/03/09 01:08:38;;;;;;;11.83;6.37;;;-1.10;99.90;;;;;;1819833;78;21571;-76
2022/03/09 01:11:05;;;;;;;11.90;6.62;;;-1.20;99.90;;;;;;1811946;78;21065;-75
2022/03/09 01:13:32;;;;;;;12.55;6.80;;;-1.20;99.90;;;;;;1809035;78;21497;-75
2022/03/09 01:16:00;;;;;;;13.58;6.65;;;-1.20;99.90;;;;;;1820193;78;21085;-76
2022/03/09 01:18:27;;;;;;;13.32;6.25;;;-1.20;99.90;;;;;;1816202;78;21089;-75
2022/03/09 01:20:54;;;;;;;8.38;6.35;;;-1.20;99.90;;;;;;1822032;78;21092;-74
2022/03/09 01:23:22;;;;;;;16.00;6.42;;;-1.20;99.90;;;;;;1812638;78;21172;-74
2022/03/09 01:25:51;;;;;;;6.15;4.78;;;-1.20;99.90;;;;;;1825476;78;21185;-75
2022/03/09 01:28:18;;;;;;;9.68;6.72;;;-1.30;99.90;;;;;;1832526;78;21114;-75
2022/03/09 01:30:46;;;;;;;11.30;5.80;;;-1.40;99.90;;;;;;1820065;78;21081;-75
2022/03/09 01:33:13;;;;;;;12.98;7.15;;;-1.40;99.90;;;;;;1811770;78;21147;-75
2022/03/09 01:35:40;;;;;;;13.85;8.15;;;-1.40;99.90;;;;;;1811158;78;21109;-75
2022/03/09 01:38:07;;;;;;;14.28;6.80;;;-1.40;99.90;;;;;;1805288;78;21088;-75
2022/03/09 01:40:35;;;;;;;13.75;8.13;;;-1.40;99.90;;;;;;1819008;78;21163;-75
2022/03/09 01:43:02;;;;;;;11.08;7.20;;;-1.60;99.90;;;;;;1826290;78;21093;-76
2022/03/09 01:45:31;;;;;;;10.53;6.72;;;-1.50;99.90;;;;;;1805174;78;21285;-75
2022/03/09 01:47:58;;;;;;;13.95;7.95;;;-1.60;99.90;;;;;;1819371;78;21092;-76
2022/03/09 01:50:25;;;;;;;10.65;8.18;;;-1.60;99.90;;;;;;1823129;78;21178;-75
2022/03/09 01:52:53;;;;;;;18.82;8.13;;;-1.60;99.90;;;;;;1809867;78;21066;-74
2022/03/09 01:55:20;;;;;;;16.95;8.58;;;-1.60;99.90;;;;;;1822814;78;21473;-76
2022/03/09 01:57:47;;;;;;;17.25;9.43;;;-1.50;99.90;;;;;;1811944;78;21092;-75
2022/03/09 02:00:15;;;;;;;13.62;8.10;;;-1.50;99.90;;;;;;1806034;78;21071;-75
2022/03/09 02:02:43;;;;;;;16.05;9.18;;;-1.60;99.90;;;;;;1808545;78;21156;-73
2022/03/09 02:05:10;;;;;;;10.40;7.28;;;-1.60;99.90;;;;;;1811438;78;21179;-73
2022/03/09 02:10:23;;;;;;;18.82;9.43;;;-1.60;99.90;;;;;;1822775;78;21152;-73
2022/03/09 02:12:51;;;;;;;17.02;9.48;;;-1.60;99.90;;;;;;1813021;78;21158;-74
2022/03/09 02:15:18;;;;;;;21.80;8.60;;;-1.70;99.90;;;;;;1826073;78;21097;-72
2022/03/09 02:17:46;;;;;;;13.22;8.35;;;-1.70;99.90;;;;;;1812569;78;21073;-74
2022/03/09 02:20:14;;;;;;;15.03;8.25;;;-1.70;99.90;;;;;;1811400;78;21205;-73
2022/03/09 02:22:42;;;;;;;15.85;8.43;;;-1.70;99.90;;;;;;1809953;78;21216;-73
2022/03/09 02:25:14;;;;;;;13.50;7.55;;;-1.70;99.90;;;;;;1817268;78;21087;-75
2022/03/09 02:27:42;;;;;;;22.67;7.25;;;-1.70;99.90;;;;;;1835081;78;21101;-73
2022/03/09 02:30:12;;;;;;;18.77;7.92;;;-1.90;99.90;;;;;;1817497;78;21085;-73
2022/03/09 02:32:43;;;;;;;12.30;7.78;;;-1.90;99.90;;;;;;1815424;78;21190;-73
2022/03/09 02:35:12;;;;;;;11.50;7.12;;;-1.90;99.90;;;;;;1814368;78;21140;-74
2022/03/09 02:37:40;;;;;;;12.85;8.03;;;-1.90;99.90;;;;;;1821885;78;21486;-73
2022/03/09 02:40:11;;;;;;;14.03;7.70;;;-1.80;99.90;;;;;;1808584;78;21179;-75
2022/03/09 02:42:39;;;;;;;17.57;8.55;;;-1.80;99.90;;;;;;1807676;78;21089;-73
2022/03/09 02:45:07;;;;;;;13.53;7.35;;;-1.80;99.90;;;;;;1820212;78;21164;-73
2022/03/09 02:47:34;;;;;;;9.60;6.50;;;-1.90;99.90;;;;;;1822664;78;21169;-74
2022/03/09 02:50:01;;;;;;;16.80;8.03;;;-1.90;99.90;;;;;;1818623;78;21093;-72
2022/03/09 02:52:29;;;;;;;12.25;7.50;;;-1.90;99.90;;;;;;1823625;78;21454;-72
2022/03/09 02:54:56;;;;;;;12.40;7.05;;;-1.90;99.90;;;;;;1807796;78;21093;-75
2022/03/09 02:57:23;;;;;;;17.00;7.83;;;-2.00;99.90;;;;;;1804190;78;21539;-73
2022/03/09 02:59:51;;;;;;;13.22;6.90;;;-2.10;99.90;;;;;;1811823;78;21170;-72
2022/03/09 03:02:18;;;;;;;11.65;6.92;;;-2.10;99.90;;;;;;1805951;78;21162;-73
2022/03/09 03:04:45;;;;;;;11.97;6.55;;;-2.20;99.90;;;;;;1819448;78;21078;-74
2022/03/09 03:07:13;;;;;;;15.65;7.25;;;-2.20;99.90;;;;;;1817608;78;21207;-73
2022/03/09 03:09:40;;;;;;;14.05;6.72;;;-2.10;99.90;;;;;;1811745;78;21089;-73
2022/03/09 03:12:08;;;;;;;11.75;7.83;;;-2.10;99.90;;;;;;1834999;78;21074;-73
2022/03/09 03:14:35;;;;;;;12.40;7.47;;;-2.20;99.90;;;;;;1806256;78;21171;-73
2022/03/09 03:17:02;;;;;;;11.78;8.18;;;-2.30;99.90;;;;;;1801316;78;21092;-73
2022/03/09 03:19:30;;;;;;;16.77;9.68;;;-2.30;99.90;;;;;;1805339;78;21089;-73
2022/03/09 03:21:57;;;;;;;15.72;9.33;;;-2.40;99.90;;;;;;1817028;78;21178;-73
2022/03/09 03:24:24;;;;;;;19.37;9.75;;;-2.30;99.90;;;;;;1809757;78;21093;-73
2022/03/09 03:26:52;;;;;;;14.70;9.78;;;-2.40;99.90;;;;;;1807932;78;21175;-73
2022/03/09 03:29:19;;;;;;;15.45;9.10;;;-2.40;99.90;;;;;;1817557;78;21141;-73
2022/03/09 03:31:46;;;;;;;20.12;9.25;;;-2.50;99.90;;;;;;1810773;78;21501;-73
2022/03/09 03:34:13;;;;;;;14.85;9.53;;;-2.40;99.90;;;;;;1808870;77;21221;-73
2022/03/09 03:36:41;;;;;;;17.67;8.70;;;-2.40;99.90;;;;;;1820449;78;21455;-73
2022/03/09 03:39:08;;;;;;;20.12;9.35;;;-2.40;99.90;;;;;;1817396;78;21281;-73
2022/03/09 03:41:36;;;;;;;12.58;7.90;;;-2.50;99.90;;;;;;1817559;78;21085;-72
2022/03/09 03:44:05;;;;;;;16.57;9.50;;;-2.50;99.90;;;;;;1805085;78;21085;-74
2022/03/09 03:46:33;;;;;;;20.52;8.40;;;-2.50;99.90;;;;;;1806225;78;21066;-73
2022/03/09 03:49:00;;;;;;;18.35;8.83;;;-2.50;99.90;;;;;;1812991;78;21106;-73
2022/03/09 03:51:27;;;;;;;13.65;8.30;;;-2.60;99.90;;;;;;1803712;78;21140;-72
2022/03/09 03:53:55;;;;;;;15.40;8.90;;;-2.50;99.90;;;;;;1801759;78;21566;-73
2022/03/09 03:56:22;;;;;;;19.10;9.13;;;-2.60;99.90;;;;;;1817416;78;21070;-73
2022/03/09 03:58:49;;;;;;;15.28;9.38;;;-2.70;99.90;;;;;;1815670;78;21182;-74
2022/03/09 04:01:16;;;;;;;14.25;8.53;;;-2.70;99.90;;;;;;1824660;78;21097;-73
2022/03/09 04:03:44;;;;;;;17.07;8.78;;;-2.60;99.90;;;;;;1811390;78;21135;-74
2022/03/09 04:06:11;;;;;;;18.10;9.15;;;-2.70;99.90;;;;;;1808727;78;21163;-73
2022/03/09 04:08:38;;;;;;;16.82;9.45;;;-2.70;99.90;;;;;;1820725;78;21097;-74
2022/03/09 04:11:06;;;;;;;18.50;9.48;;;-2.70;99.90;;;;;;1816606;78;21159;-73
2022/03/09 04:13:33;;;;;;;14.13;8.80;;;-2.60;99.90;;;;;;1808868;78;21640;-74
2022/03/09 04:16:00;;;;;;;17.80;8.45;;;-2.60;99.90;;;;;;1819129;78;21093;-73
2022/03/09 04:18:28;;;;;;;18.40;8.65;;;-2.70;99.90;;;;;;1828024;78;21239;-73
2022/03/09 04:20:55;;;;;;;15.58;8.83;;;-2.80;99.90;;;;;;1816284;78;21497;-74
2022/03/09 04:23:22;;;;;;;17.40;9.20;;;-2.80;99.90;;;;;;1819031;78;21151;-73
2022/03/09 04:25:50;;;;;;;12.18;8.15;;;-2.80;99.90;;;;;;1822075;78;21492;-73
2022/03/09 04:28:17;;;;;;;16.07;8.58;;;-2.70;99.90;;;;;;1828427;78;21066;-73
2022/03/09 04:30:44;;;;;;;14.18;8.03;;;-2.70;99.90;;;;;;1821931;78;21520;-73
2022/03/09 04:33:12;;;;;;;19.30;8.03;;;-2.80;99.90;;;;;;1811728;78;21088;-73
2022/03/09 04:35:39;;;;;;;20.72;9.25;;;-2.70;99.90;;;;;;1811950;78;21240;-73
2022/03/09 04:38:06;;;;;;;13.28;8.50;;;-2.80;99.90;;;;;;1811994;78;21566;-73
2022/03/09 04:40:34;;;;;;;20.23;9.53;;;-2.90;99.90;;;;;;1806984;78;21092;-73
2022/03/09 04:43:01;;;;;;;17.52;8.80;;;-2.90;99.90;;;;;;1822828;78;21066;-73
2022/03/09 04:45:28;;;;;;;14.05;8.55;;;-2.90;99.90;;;;;;1825360;78;21093;-73
2022/03/09 04:47:56;;;;;;;18.00;10.28;;;-2.90;99.90;;;;;;1824769;78;21093;-75
2022/03/09 04:50:23;;;;;;;14.83;8.55;;;-2.90;99.90;;;;;;1809229;78;21140;-73
2022/03/09 04:52:50;;;;;;;15.43;8.93;;;-2.90;99.90;;;;;;1813247;78;21090;-72
2022/03/09 04:55:17;;;;;;;16.12;9.08;;;-2.90;99.90;;;;;;1813202;78;21075;-72
2022/03/09 04:57:45;;;;;;;18.60;9.08;;;-2.90;99.90;;;;;;1815829;78;21142;-72
2022/03/09 05:00:13;;;;;;;15.63;8.55;;;-2.90;99.90;;;;;;1816843;78;21468;-72
2022/03/09 05:02:40;;;;;;;18.25;8.98;;;-3.00;99.90;;;;;;1813970;78;21183;-73
2022/03/09 05:05:08;;;;;;;15.35;8.58;;;-3.10;99.90;;;;;;1805879;78;21477;-71
2022/03/09 05:07:35;;;;;;;14.70;9.13;;;-3.00;99.90;;;;;;1816858;78;21088;-72
2022/03/09 05:10:02;;;;;;;15.45;8.68;;;-3.00;99.90;;;;;;1788061;79;21082;-73
2022/03/09 05:12:30;;;;;;;16.77;9.23;;;-3.00;99.90;;;;;;1805812;78;21306;-73
2022/03/09 05:14:57;;;;;;;20.27;8.23;;;-3.00;99.90;;;;;;1812047;78;21177;-73
2022/03/09 05:17:24;;;;;;;16.07;9.08;;;-3.10;99.90;;;;;;1804151;78;21167;-73
2022/03/09 05:19:52;;;;;;;16.82;9.50;;;-3.10;99.90;;;;;;1816337;78;21166;-74
2022/03/09 05:22:19;;;;;;;26.87;10.10;;;-3.10;99.90;;;;;;1822460;78;21163;-72
2022/03/09 05:24:46;;;;;;;23.57;9.50;;;-3.00;99.90;;;;;;1805003;78;21066;-72
2022/03/09 05:27:14;;;;;;;15.50;9.20;;;-3.20;99.90;;;;;;1821287;78;21089;-74
2022/03/09 05:29:42;;;;;;;21.27;9.63;;;-3.10;99.90;;;;;;1826034;78;21183;-73
2022/03/09 05:32:09;;;;;;;19.02;8.95;;;-3.20;99.90;;;;;;1815169;78;21069;-72
2022/03/09 05:34:37;;;;;;;17.37;10.40;;;-3.30;99.90;;;;;;1814885;78;21090;-73
2022/03/09 05:37:04;;;;;;;23.52;9.38;;;-3.20;99.90;;;;;;1818777;78;21486;-73
2022/03/09 05:39:31;;;;;;;15.63;9.38;;;-3.20;99.90;;;;;;1810415;78;21265;-72
2022/03/09 05:41:59;;;;;;;16.10;8.83;;;-3.20;99.90;;;;;;1819246;78;21097;-73
2022/03/09 05:44:26;;;;;;;20.90;9.28;;;-3.30;99.90;;;;;;1815034;78;21101;-73
2022/03/09 05:46:54;;;;;;;13.30;8.90;;;-3.20;99.90;;;;;;1811427;78;21186;-74
2022/03/09 05:49:22;;;;;;;20.17;8.80;;;-3.20;99.90;;;;;;1821959;78;21074;-73
2022/03/09 05:51:52;;;;;;;16.20;8.55;;;-3.20;99.90;;;;;;1804914;78;21192;-75
2022/03/09 05:54:18;;;;;;;14.25;8.85;;;-3.20;99.90;;;;;;1810208;77;21092;-74
2022/03/09 05:56:45;;;;;;;15.75;9.15;;;-3.30;99.90;;;;;;1805808;78;21158;-74
2022/03/09 05:59:13;;;;;;;15.70;9.35;;;-3.20;99.90;;;;;;1828430;78;21171;-76
2022/03/09 06:01:40;;;;;;;14.95;8.63;;;-3.20;99.90;;;;;;1811859;78;21189;-74
2022/03/09 06:04:07;;;;;;;19.95;10.23;;;-3.20;99.90;;;;;;1817472;78;21094;-74
2022/03/09 06:06:35;;;;;;;17.82;9.68;;;-3.20;99.90;;;;;;1835021;78;21089;-75
2022/03/09 06:09:02;;;;;;;21.80;9.85;;;-3.30;99.90;;;;;;1807018;78;21102;-74
2022/03/09 06:11:29;;;;;;;19.45;10.28;;;-3.30;99.90;;;;;;1812176;78;21084;-72
2022/03/09 06:13:57;;;;;;;13.10;9.38;;;-3.30;99.90;;;;;;1809563;78;21109;-73
2022/03/09 06:16:24;;;;;;;17.50;9.43;;;-3.20;99.90;;;;;;1815740;78;21249;-74
2022/03/09 06:18:51;;;;;;;26.62;10.15;;;-3.20;99.90;;;;;;1821077;78;21093;-73
2022/03/09 06:21:19;;;;;;;25.62;11.15;;;-3.20;99.90;;;;;;1804716;78;21159;-75
2022/03/09 06:23:46;;;;;;;21.42;10.32;;;-3.20;99.90;;;;;;1824829;78;21096;-74
2022/03/09 06:26:13;;;;;;;18.75;9.73;;;-3.20;99.90;;;;;;1805576;78;21159;-72
2022/03/09 06:28:41;;;;;;;15.13;9.40;;;-3.10;99.90;;;;;;1816695;78;21074;-73
2022/03/09 06:31:08;;;;;;;17.07;9.70;;;-3.10;99.90;;;;;;1821450;78;21171;-73
2022/03/09 06:33:35;;;;;;;17.27;10.13;;;-2.90;99.90;;;;;;1802435;78;21109;-73
2022/03/09 06:36:06;;;;;;;18.17;9.25;;;-2.90;99.90;;;;;;1821706;78;21094;-72
2022/03/09 06:38:32;;;;;;;20.50;9.80;;;-2.90;99.90;;;;;;1813829;78;21438;-73
2022/03/09 06:40:59;;;;;;;18.82;9.00;;;-2.90;99.90;;;;;;1806426;78;21148;-74
2022/03/09 06:43:26;;;;;;;19.35;10.13;;;-2.80;99.90;;;;;;1819950;78;21451;-73
2022/03/09 06:45:54;;;;;;;17.65;8.80;;;-2.80;99.90;;;;;;1809944;78;21086;-73
2022/03/09 06:48:21;;;;;;;16.77;9.83;;;-2.80;99.90;;;;;;1824517;78;21471;-73
2022/03/09 06:50:48;;;;;;;23.07;10.70;;;-2.70;99.90;;;;;;1806762;78;21179;-73
2022/03/09 06:53:15;;;;;;;17.92;10.35;;;-2.70;99.90;;;;;;1828768;78;21089;-73
2022/03/09 06:55:44;;;;;;;21.85;9.75;;;-2.70;99.90;;;;;;1821914;78;21118;-74
2022/03/09 06:58:11;;;;;;;20.57;9.43;;;-2.70;99.90;;;;;;1825593;78;21097;-74
2022/03/09 07:00:39;;;;;;;20.75;10.00;;;-2.60;99.90;;;;;;1816991;78;21242;-75
2022/03/09 07:03:06;;;;;;;16.77;10.65;;;-2.60;99.90;;;;;;1819266;78;21061;-73
2022/03/09 07:05:34;;;;;;;23.05;9.63;;;-2.50;99.90;;;;;;1809609;78;21167;-74
2022/03/09 07:08:01;;;;;;;17.70;9.80;;;-2.40;99.90;;;;;;1820056;78;21088;-74
2022/03/09 07:10:28;;;;;;;26.80;10.93;;;-2.30;99.90;;;;;;1817362;78;21229;-72
2022/03/09 07:12:56;;;;;;;21.07;10.88;;;-2.10;99.90;;;;;;1814762;78;21184;-74
2022/03/09 07:15:23;;;;;;;22.32;10.85;;;-2.00;99.90;;;;;;1805169;78;21164;-74
2022/03/09 07:17:51;;;;;;;22.87;11.20;;;-1.80;99.90;;;;;;1814408;78;21150;-75
2022/03/09 07:20:19;;;;;;;23.92;11.12;;;-1.70;99.90;;;;;;1815601;78;21154;-75
2022/03/09 07:22:50;;;;;;;27.93;11.10;;;-1.60;99.90;;;;;;1808649;78;21089;-75
2022/03/09 07:25:17;;;;;;;24.37;9.85;;;-1.40;99.90;;;;;;1807146;78;21159;-74
2022/03/09 07:27:46;;;;;;;18.32;10.15;;;-1.30;99.90;;;;;;1820992;78;21079;-74
2022/03/09 07:30:13;;;;;;;19.52;10.03;;;-1.20;99.90;;;;;;1814410;78;21070;-74
2022/03/09 07:32:41;;;;;;;22.17;10.63;;;-1.10;99.90;;;;;;1804479;78;21093;-74
2022/03/09 07:35:15;;;;;;;26.62;10.65;;;-0.90;99.90;;;;;;1809419;78;21092;-74
2022/03/09 07:37:42;;;;;;;15.63;9.40;;;-1.00;99.90;;;;;;1819786;78;21093;-75
2022/03/09 07:40:10;;;;;;;17.67;11.15;;;-1.00;99.90;;;;;;1818156;77;21089;-74
2022/03/09 07:42:37;;;;;;;20.15;10.93;;;-1.00;99.90;;;;;;1814849;78;21268;-75
2022/03/09 07:45:06;;;;;;;15.55;10.03;;;-0.90;99.90;;;;;;1819137;78;21525;-76
2022/03/09 07:47:35;;;;;;;17.43;11.00;;;-0.70;99.90;;;;;;1820326;78;21101;-75
2022/03/09 07:50:03;;;;;;;17.48;10.18;;;-0.50;99.90;;;;;;1820293;78;21217;-75
2022/03/09 07:52:32;;;;;;;22.90;9.93;;;-0.30;99.90;;;;;;1814486;77;21097;-75
2022/03/09 07:55:00;;;;;;;18.92;9.85;;;0.00;99.90;;;;;;1814232;78;21174;-74
2022/03/09 07:57:28;;;;;;;17.27;9.68;;;0.10;99.90;;;;;;1821998;78;21159;-75
2022/03/09 07:59:55;;;;;;;28.60;9.75;;;0.30;99.90;;;;;;1833820;78;21062;-76
2022/03/09 08:02:22;;;;;;;22.00;10.05;;;0.40;99.90;;;;;;1822214;78;21097;-75
2022/03/09 08:04:50;;;;;;;19.67;9.78;;;0.60;99.90;;;;;;1822009;78;21089;-75
2022/03/09 08:07:17;;;;;;;16.27;9.23;;;0.70;99.90;;;;;;1810439;78;21158;-76
2022/03/09 08:09:44;;;;;;;18.07;9.20;;;0.90;99.90;;;;;;1809053;78;21431;-75
2022/03/09 08:12:12;;;;;;;24.55;9.13;;;1.10;99.90;;;;;;1814157;78;21153;-75
2022/03/09 08:14:39;;;;;;;19.07;10.00;;;1.30;99.90;;;;;;1821907;78;21100;-74
2022/03/09 08:17:06;;;;;;;17.62;9.93;;;1.40;99.90;;;;;;1819325;78;21085;-75
2022/03/09 08:19:36;;;;;;;17.87;10.43;;;1.40;99.90;;;;;;1816298;78;21449;-74
2022/03/09 08:22:03;;;;;;;12.68;9.18;;;1.50;99.90;;;;;;1825955;78;21093;-74
2022/03/09 08:24:32;;;;;;;17.45;9.58;;;1.70;99.90;;;;;;1814672;78;21097;-73
2022/03/09 08:27:00;;;;;;;13.08;8.18;;;2.10;99.90;;;;;;1823689;78;21164;-73
2022/03/09 08:29:27;;;;;;;13.35;9.10;;;2.40;99.90;;;;;;1820604;78;21178;-74
2022/03/09 08:31:55;;;;;;;16.25;8.68;;;2.70;99.90;;;;;;1814854;78;21086;-74
2022/03/09 08:34:22;;;;;;;15.53;8.10;;;3.00;99.90;;;;;;1808826;78;21423;-74
2022/03/09 08:37:09;;;;;;;16.20;9.33;;;3.50;99.90;;;;;;1800550;78;21163;-74
2022/03/09 08:39:36;;;;;;;12.93;8.28;;;3.40;99.90;;;;;;1826802;78;21110;-77
2022/03/09 08:42:04;;;;;;;13.78;8.43;;;3.50;99.90;;;;;;1801822;78;21539;-73
2022/03/09 08:44:31;;;;;;;16.70;8.83;;;3.40;99.90;;;;;;1805735;79;21442;-74
2022/03/09 08:46:59;;;;;;;14.68;8.80;;;3.40;99.90;;;;;;1805733;79;21145;-73
2022/03/09 08:49:26;;;;;;;12.58;7.75;;;3.80;99.90;;;;;;1805779;79;21554;-74
2022/03/09 08:51:54;;;;;;;13.95;7.67;;;4.30;99.90;;;;;;1805551;79;21134;-74
2022/03/09 08:54:21;;;;;;;11.43;7.97;;;4.50;99.90;;;;;;1805783;79;21448;-74
2022/03/09 08:56:48;;;;;;;13.15;7.28;;;4.90;99.90;;;;;;1805509;79;21461;-74
2022/03/09 08:59:16;;;;;;;19.27;7.62;;;5.30;99.90;;;;;;1805761;79;21060;-74
2022/03/09 09:01:43;;;;;;;10.40;7.58;;;5.80;99.90;;;;;;1805785;79;21092;-74
2022/03/09 09:04:10;;;;;;;12.93;7.80;;;5.60;99.90;;;;;;1805680;79;21150;-74
2022/03/09 09:06:39;;;;;;;12.23;8.10;;;5.80;99.90;;;;;;1805667;78;21136;-74
2022/03/09 09:09:07;;;;;;;10.93;7.70;;;5.80;99.90;;;;;;1805746;79;21456;-73
2022/03/09 09:11:34;;;;;;;18.10;7.78;;;5.80;99.90;;;;;;1805789;79;21184;-74
2022/03/09 09:14:01;;;;;;;13.83;7.55;;;6.00;99.90;;;;;;1805985;79;21547;-74
2022/03/09 09:16:28;;;;;;;13.58;7.90;;;6.50;99.90;;;;;;1806072;79;21071;-74
2022/03/09 09:18:56;;;;;;;10.13;6.67;;;6.80;99.90;;;;;;1805921;79;21158;-74
2022/03/09 09:21:23;;;;;;;13.03;7.37;;;6.20;99.90;;;;;;1805708;79;21045;-75
2022/03/09 09:23:50;;;;;;;19.77;8.45;;;6.20;99.90;;;;;;1805652;79;21163;-75
2022/03/09 09:26:20;;;;;;;14.25;8.25;;;6.00;99.90;;;;;;1805821;79;21080;-75
2022/03/09 09:28:48;;;;;;;15.43;7.62;;;6.60;99.90;;;;;;1805960;78;21073;-74
2022/03/09 09:31:15;;;;;;;17.60;7.67;;;7.10;99.90;;;;;;1805893;79;21134;-74
2022/03/09 09:33:42;;;;;;;21.00;8.18;;;7.80;99.90;;;;;;1805793;79;21111;-74
2022/03/09 09:36:10;;;;;;;12.82;8.23;;;7.90;99.90;;;;;;1805764;79;21457;-74
2022/03/09 09:38:37;;;;;;;13.90;7.97;;;7.80;99.90;;;;;;1805850;79;21143;-75
2022/03/09 09:41:08;;;;;;;13.78;7.90;;;7.80;99.90;;;;;;1805911;79;21045;-74
2022/03/09 09:43:33;;;;;;;9.88;7.28;;;7.90;99.90;;;;;;1805574;78;21538;-74
2022/03/09 09:46:01;;;;;;;16.17;8.23;;;8.30;99.90;;;;;;1805702;79;21068;-74
2022/03/09 09:48:28;;;;;;;11.10;7.35;;;9.00;98.10;;;;;;1805732;79;21449;-74
2022/03/09 10:01:01;;;;;;;11.55;8.13;;;8.60;95.30;;;;;;1798735;78;21090;-74
2022/03/09 10:03:28;;;;;;;15.13;8.38;;;8.40;95.10;;;;;;1738461;80;21557;-73
2022/03/09 10:05:56;;;;;;;15.15;7.92;;;9.30;95.10;;;;;;1756009;81;21162;-74
2022/03/09 10:08:23;;;;;;;11.68;7.20;;;9.70;92.40;;;;;;1751177;80;21105;-74
2022/03/09 10:10:57;;;;;;;20.65;8.88;;;9.70;91.60;;;;;;1773303;78;21584;-75
2022/03/09 10:13:33;;;;;;;12.43;7.40;;;8.90;91.70;;;;;;1757054;80;21096;-75
2022/03/09 10:16:18;;;;;;;14.05;8.10;;;9.00;92.30;;;;;;1800731;78;21097;-74
2022/03/09 10:18:50;;;;;;;17.48;8.03;;;9.20;91.80;;;;;;1758678;80;21113;-75
2022/03/09 10:21:20;;;;;;;15.93;8.50;;;9.60;91.20;;;;;;1784118;80;21022;-76
2022/03/09 10:23:56;;;;;;;19.12;8.90;;;9.80;90.30;;;;;;1739858;81;21193;-76
2022/03/09 10:26:25;;;;;;;14.43;8.53;;;10.00;87.90;;;;;;1809159;78;21174;-75
2022/03/09 10:28:58;;;;;;;14.90;9.20;;;9.40;89.60;;;;;;1803418;77;21162;-74
2022/03/09 10:34:48;;;;;;;15.45;9.63;;;10.80;83.80;;;;;;1812449;77;21550;-74
2022/03/09 10:37:15;;;;;;;16.52;8.90;;;11.00;81.10;;;;;;1803010;78;21176;-75
2022/03/09 10:39:44;;;;;;;16.55;9.23;;;10.80;81.00;;;;;;1798143;78;21134;-75
2022/03/09 10:42:25;;;;;;;14.68;8.78;;;10.50;82.80;;;;;;1792867;78;21164;-75
2022/03/09 10:44:53;;;;;;;16.48;9.28;;;11.20;81.50;;;;;;1814040;78;21229;-75
2022/03/09 10:47:44;;;;;;;15.60;9.60;;;11.10;79.70;;;;;;1801349;78;21148;-73
2022/03/09 10:50:20;;;;;;;16.23;8.80;;;11.20;79.60;;;;;;1787396;78;21093;-74
2022/03/09 10:52:53;;;;;;;19.73;9.43;;;11.80;78.00;;;;;;1792002;78;21118;-75
2022/03/09 10:55:35;;;;;;;15.25;9.28;;;12.30;73.20;;;;;;1784018;79;21091;-73
2022/03/09 10:58:17;;;;;;;15.23;9.33;;;11.50;75.50;;;;;;1795060;79;21103;-74
2022/03/09 11:00:46;;;;;;;15.15;9.83;;;11.50;76.50;;;;;;1800692;78;21176;-75
2022/03/09 11:03:20;;;;;;;16.23;9.97;;;12.10;73.90;;;;;;1813853;78;21119;-74
2022/03/09 11:05:59;;;;;;;16.05;10.63;;;12.50;72.60;;;;;;1811837;78;21488;-76
2022/03/09 11:08:30;;;;;;;19.50;10.03;;;13.00;70.70;;;;;;1805506;78;21642;-75
2022/03/09 11:10:59;;;;;;;20.82;11.28;;;12.80;70.00;;;;;;1807925;78;21174;-74
2022/03/09 11:13:29;;;;;;;18.75;11.25;;;12.70;69.60;;;;;;1792793;79;21595;-73
2022/03/09 11:15:57;;;;;;;20.97;12.33;;;12.80;70.10;;;;;;1814754;78;21104;-73
2022/03/09 11:18:26;;;;;;;16.20;11.10;;;13.30;68.20;;;;;;1823434;78;21527;-75
2022/03/09 11:21:02;;;;;;;19.98;11.73;;;13.40;64.90;;;;;;1799984;78;21109;-74
2022/03/09 11:23:31;;;;;;;18.45;11.75;;;12.10;67.60;;;;;;1813174;78;21069;-75
2022/03/09 11:26:12;;;;;;;19.42;11.63;;;12.30;68.90;;;;;;1810587;77;21099;-75
2022/03/09 11:28:42;;;;;;;16.77;11.30;;;12.50;66.70;;;;;;1828364;78;21110;-74
2022/03/09 11:31:12;;;;;;;20.45;11.75;;;13.00;66.60;;;;;;1784614;78;21112;-75
2022/03/09 11:33:48;;;;;;;19.62;12.53;;;13.10;65.20;;;;;;1810289;77;21476;-75
2022/03/09 11:36:33;;;;;;;23.62;11.97;;;12.80;65.30;;;;;;1831257;78;21083;-76
2022/03/09 11:39:09;;;;;;;16.70;12.30;;;13.10;64.40;;;;;;1827677;78;21114;-74
2022/03/09 11:41:38;;;;;;;26.73;13.43;;;13.60;62.70;;;;;;1815750;78;21128;-75
2022/03/09 11:44:28;;;;;;;23.25;14.73;;;13.70;62.10;;;;;;1815520;78;21491;-73
2022/03/09 11:47:01;;;;;;;27.52;15.03;;;13.60;61.50;;;;;;1799472;77;21117;-76
2022/03/09 11:49:49;;;;;;;28.90;14.38;;;13.10;61.10;;;;;;1787696;79;21103;-75
2022/03/09 11:52:21;;;;;;;24.00;13.95;;;13.10;61.20;;;;;;1792473;78;21130;-76
2022/03/09 11:54:55;;;;;;;21.10;13.22;;;13.90;60.50;;;;;;1810903;78;21087;-76
2022/03/09 11:57:24;;;;;;;20.32;13.13;;;13.20;59.50;;;;;;1795874;78;21113;-76
2022/03/09 12:00:12;;;;;;;17.10;12.75;;;13.70;60.00;;;;;;1812957;78;21099;-76
2022/03/09 12:02:44;;;;;;;22.40;14.60;;;14.10;59.20;;;;;;1817244;78;21117;-77
2022/03/09 12:05:30;;;;;;;24.55;13.95;;;14.30;57.40;;;;;;1804453;78;21100;-76
2022/03/09 12:08:03;;;;;;;23.40;13.65;;;13.50;59.70;;;;;;1823800;77;21158;-76
2022/03/09 12:10:49;;;;;;;18.17;12.47;;;14.90;58.80;;;;;;1811710;78;21174;-77
2022/03/09 12:13:33;;;;;;;20.43;13.28;;;15.30;55.10;;;;;;1800757;78;21082;-75
2022/03/09 12:16:12;;;;;;;20.62;13.13;;;15.20;55.50;;;;;;1801807;77;21115;-76
2022/03/09 12:19:00;;;;;;;19.87;12.82;;;16.20;54.30;;;;;;1812025;78;21157;-77
2022/03/09 12:21:29;;;;;;;;;;;16.30;51.80;;;;;;1810628;78;21142;-75
2022/03/09 12:24:03;;;;;;;17.10;12.13;;;15.60;52.30;;;;;;1810521;78;20145;-75
2022/03/09 12:26:54;;;;;;;18.45;12.20;;;14.90;52.70;;;;;;1798357;78;21187;-76
2022/03/09 12:29:30;;;;;;;25.97;12.88;;;15.80;52.10;;;;;;1808030;77;21139;-76
2022/03/09 12:32:08;;;;;;;23.18;15.05;;;15.90;49.60;;;;;;1804916;78;21142;-75
2022/03/09 12:34:39;;;;;;;28.83;12.23;;;15.90;49.00;;;;;;1797454;78;21171;-76
2022/03/09 12:37:12;;;;;;;16.95;11.65;;;16.40;49.40;;;;;;1826059;78;21153;-75
2022/03/09 12:39:39;;;;;;;17.55;12.25;;;15.80;48.10;;;;;;1799527;78;21155;-73
2022/03/09 12:42:07;;;;;;;20.15;11.43;;;15.70;49.40;;;;;;1800649;78;21062;-72
2022/03/09 12:44:36;;;;;;;19.07;11.43;;;16.60;47.10;;;;;;1794775;78;21082;-81
2022/03/09 12:47:05;;;;;;;16.32;11.05;;;16.40;45.40;;;;;;1798193;76;21158;-79
2022/03/09 12:49:39;;;;;;;23.35;10.23;;;16.00;44.80;;;;;;1804451;78;21120;-79
2022/03/09 12:52:14;;;;;;;10.40;7.78;;;16.10;44.10;;;;;;1812950;78;21476;-79
2022/03/09 12:54:56;;;;;;;10.98;8.03;;;16.60;40.70;;;;;;1801025;78;21455;-78
2022/03/09 12:57:31;;;;;;;16.65;8.08;;;17.30;40.60;;;;;;1808398;78;21548;-80
2022/03/09 13:00:13;;;;;;;12.78;7.85;;;17.60;37.00;;;;;;1823660;78;21149;-77
2022/03/09 13:02:43;;;;;;;14.90;8.30;;;16.60;38.00;;;;;;1831168;77;21452;-79
2022/03/09 13:05:13;;;;;;;13.98;7.62;;;15.80;38.80;;;;;;1806465;78;21153;-77